Time,TemperatureF,DewpointF,PressureIn,WindDirection,WindDirectionDegrees,WindSpeedMPH,WindSpeedGustMPH,Humidity,HourlyPrecipIn,Conditions,Clouds,dailyrainin,SolarRadiationWatts/m^2,SoftwareType,DateUTC
2013-09-12 00:03:00,68.4,59.7,29.98,ENE,61,0.0,1.0,74,0.00,,,0.00,0.0,meteohub,2013-09-12 07:03:00,
2013-09-12 00:08:00,68.2,59.9,29.98,ENE,62,1.0,1.0,75,0.00,,,0.00,0.0,meteohub,2013-09-12 07:08:00,
2013-09-12 00:13:00,68.0,59.7,29.98,ENE,61,1.0,1.0,75,0.00,,,0.00,0.0,meteohub,2013-09-12 07:13:00,
2013-09-12 00:18:00,67.6,59.7,29.98,ENE,61,1.0,2.0,76,0.00,,,0.00,0.0,meteohub,2013-09-12 07:18:00,
2013-09-12 00:23:00,67.6,59.4,29.98,ENE,62,0.0,2.0,75,0.00,,,0.00,0.0,meteohub,2013-09-12 07:23:00,
2013-09-12 00:28:00,67.8,58.1,29.98,ENE,61,1.0,2.0,71,0.00,,,0.00,0.0,meteohub,2013-09-12 07:28:00,
2013-09-12 00:33:00,68.0,59.0,29.97,ENE,62,0.0,2.0,73,0.00,,,0.00,0.0,meteohub,2013-09-12 07:33:00,
2013-09-12 00:38:00,68.0,59.4,29.97,ENE,61,1.0,2.0,74,0.00,,,0.00,0.0,meteohub,2013-09-12 07:38:00,
2013-09-12 00:43:00,68.0,58.6,29.98,ENE,61,0.0,2.0,72,0.00,,,0.00,0.0,meteohub,2013-09-12 07:43:00,
2013-09-12 00:48:00,67.8,59.9,29.98,ENE,62,1.0,1.0,76,0.00,,,0.00,0.0,meteohub,2013-09-12 07:48:00,
2013-09-12 00:53:00,67.6,59.4,29.98,ENE,62,0.0,1.0,75,0.00,,,0.00,0.0,meteohub,2013-09-12 07:53:00,
2013-09-12 00:58:00,67.5,59.2,29.98,ENE,62,0.0,1.0,75,0.00,,,0.00,0.0,meteohub,2013-09-12 07:58:00,
2013-09-12 01:03:00,67.3,59.0,29.98,ENE,62,0.0,1.0,75,0.00,,,0.00,0.0,meteohub,2013-09-12 08:03:00,
2013-09-12 01:08:00,67.3,60.3,29.98,ENE,62,0.0,1.0,78,0.00,,,0.00,0.0,meteohub,2013-09-12 08:08:00,
2013-09-12 01:13:00,66.9,59.5,29.98,ENE,61,0.0,1.0,77,0.00,,,0.00,0.0,meteohub,2013-09-12 08:13:00,
2013-09-12 01:18:00,66.7,59.4,29.98,ENE,61,0.0,1.0,77,0.00,,,0.00,0.0,meteohub,2013-09-12 08:18:00,
2013-09-12 01:23:00,66.7,59.4,29.98,ENE,62,0.0,1.0,77,0.00,,,0.00,0.0,meteohub,2013-09-12 08:23:00,
2013-09-12 01:28:00,66.6,59.5,29.98,ENE,62,1.0,1.0,78,0.00,,,0.00,0.0,meteohub,2013-09-12 08:28:00,
2013-09-12 01:33:00,66.7,58.6,29.98,ENE,62,1.0,2.0,75,0.00,,,0.00,0.0,meteohub,2013-09-12 08:33:00,
2013-09-12 01:39:00,67.5,57.4,29.98,ENE,57,2.0,2.0,70,0.00,,,0.00,0.0,meteohub,2013-09-12 08:39:00,
2013-09-12 01:44:00,68.5,56.3,29.97,North,355,0.0,3.0,65,0.00,,,0.00,0.0,meteohub,2013-09-12 08:44:00,
2013-09-12 01:49:00,69.3,56.5,29.97,North,355,0.0,3.0,64,0.00,,,0.00,0.0,meteohub,2013-09-12 08:49:00,
2013-09-12 01:54:00,69.3,56.5,29.98,North,355,0.0,3.0,64,0.00,,,0.00,0.0,meteohub,2013-09-12 08:54:00,
2013-09-12 01:59:00,69.3,59.5,29.97,North,355,0.0,3.0,71,0.00,,,0.00,0.0,meteohub,2013-09-12 08:59:00,
2013-09-12 02:04:00,68.7,57.7,29.97,North,355,1.0,1.0,68,0.00,,,0.00,0.0,meteohub,2013-09-12 09:04:00,
2013-09-12 02:09:00,68.5,58.8,29.97,North,355,2.0,2.0,71,0.00,,,0.00,0.0,meteohub,2013-09-12 09:09:00,
2013-09-12 02:14:00,68.2,58.8,29.97,North,355,0.0,2.0,72,0.00,,,0.00,0.0,meteohub,2013-09-12 09:14:00,
2013-09-12 02:19:00,67.6,59.4,29.97,North,355,0.0,2.0,75,0.00,,,0.00,0.0,meteohub,2013-09-12 09:19:00,
2013-09-12 02:24:00,67.3,59.9,29.97,North,355,0.0,2.0,77,0.00,,,0.00,0.0,meteohub,2013-09-12 09:24:00,
2013-09-12 02:29:00,66.9,59.5,29.97,North,355,0.0,2.0,77,0.00,,,0.00,0.0,meteohub,2013-09-12 09:29:00,
2013-09-12 02:34:00,66.6,57.6,29.97,North,355,1.0,1.0,73,0.00,,,0.00,0.0,meteohub,2013-09-12 09:34:00,
2013-09-12 02:39:00,66.9,57.6,29.97,North,355,0.0,2.0,72,0.00,,,0.00,0.0,meteohub,2013-09-12 09:39:00,
2013-09-12 02:44:00,66.9,57.6,29.97,North,355,0.0,2.0,72,0.00,,,0.00,0.0,meteohub,2013-09-12 09:44:00,
2013-09-12 02:49:00,66.9,57.6,29.96,North,355,0.0,2.0,72,0.00,,,0.00,0.0,meteohub,2013-09-12 09:49:00,
2013-09-12 02:54:00,66.9,57.9,29.96,North,355,0.0,2.0,73,0.00,,,0.00,0.0,meteohub,2013-09-12 09:54:00,
2013-09-12 02:59:00,66.7,59.4,29.96,North,355,1.0,1.0,77,0.00,,,0.00,0.0,meteohub,2013-09-12 09:59:00,
2013-09-12 03:04:00,66.6,59.2,29.96,North,355,1.0,1.0,77,0.00,,,0.00,0.0,meteohub,2013-09-12 10:04:00,
2013-09-12 03:09:00,66.0,59.4,29.96,North,355,0.0,1.0,79,0.00,,,0.00,0.0,meteohub,2013-09-12 10:09:00,
2013-09-12 03:14:00,65.8,59.2,29.96,North,355,0.0,2.0,79,0.00,,,0.00,0.0,meteohub,2013-09-12 10:14:00,
2013-09-12 03:19:00,65.5,59.2,29.96,North,355,1.0,2.0,80,0.00,,,0.00,0.0,meteohub,2013-09-12 10:19:00,
2013-09-12 03:24:00,65.1,59.5,29.96,North,355,0.0,1.0,82,0.00,,,0.00,0.0,meteohub,2013-09-12 10:24:00,
2013-09-12 03:29:00,64.9,59.0,29.96,North,355,1.0,1.0,81,0.00,,,0.00,0.0,meteohub,2013-09-12 10:29:00,
2013-09-12 03:34:00,64.8,58.8,29.96,North,355,0.0,2.0,81,0.00,,,0.00,0.0,meteohub,2013-09-12 10:34:00,
2013-09-12 03:39:00,64.6,59.7,29.96,North,355,0.0,2.0,84,0.00,,,0.00,0.0,meteohub,2013-09-12 10:39:00,
2013-09-12 03:44:00,64.6,59.7,29.96,North,355,0.0,2.0,84,0.00,,,0.00,0.0,meteohub,2013-09-12 10:44:00,
2013-09-12 03:49:00,64.4,59.2,29.96,North,355,0.0,1.0,83,0.00,,,0.00,0.0,meteohub,2013-09-12 10:49:00,
2013-09-12 03:55:00,64.4,59.2,29.96,North,355,0.0,1.0,83,0.00,,,0.00,0.0,meteohub,2013-09-12 10:55:00,
2013-09-12 04:00:00,64.4,59.2,29.96,North,355,0.0,1.0,83,0.00,,,0.00,0.0,meteohub,2013-09-12 11:00:00,
2013-09-12 04:05:00,64.4,59.2,29.96,North,355,0.0,1.0,83,0.00,,,0.00,0.0,meteohub,2013-09-12 11:05:00,
2013-09-12 04:10:00,64.4,58.8,29.97,North,355,0.0,1.0,82,0.00,,,0.00,0.0,meteohub,2013-09-12 11:10:00,
2013-09-12 04:15:00,64.4,59.5,29.97,North,355,0.0,0.0,84,0.00,,,0.00,0.0,meteohub,2013-09-12 11:15:00,
2013-09-12 04:20:00,64.4,59.7,29.97,North,355,0.0,1.0,85,0.00,,,0.00,0.0,meteohub,2013-09-12 11:20:00,
2013-09-12 04:25:00,64.4,60.1,29.96,North,355,0.0,1.0,86,0.00,,,0.00,0.0,meteohub,2013-09-12 11:25:00,
2013-09-12 04:30:00,64.4,59.7,29.97,North,355,0.0,0.0,85,0.00,,,0.00,0.0,meteohub,2013-09-12 11:30:00,
2013-09-12 04:35:00,64.6,59.9,29.97,North,355,0.0,0.0,85,0.00,,,0.00,0.0,meteohub,2013-09-12 11:35:00,
2013-09-12 04:40:00,64.6,59.9,29.97,North,355,0.0,1.0,85,0.00,,,0.00,0.0,meteohub,2013-09-12 11:40:00,
2013-09-12 04:45:00,64.8,60.1,29.97,North,355,1.0,1.0,85,0.00,,,0.00,0.0,meteohub,2013-09-12 11:45:00,
2013-09-12 04:50:00,64.9,59.7,29.97,North,355,1.0,1.0,83,0.00,,,0.00,0.0,meteohub,2013-09-12 11:50:00,
2013-09-12 04:55:00,65.1,59.9,29.97,North,355,0.0,1.0,83,0.00,,,0.00,0.0,meteohub,2013-09-12 11:55:00,
2013-09-12 05:00:00,65.3,60.6,29.97,North,355,0.0,2.0,85,0.00,,,0.00,0.0,meteohub,2013-09-12 12:00:00,
2013-09-12 05:05:00,65.3,60.3,29.97,North,355,0.0,2.0,84,0.00,,,0.00,0.0,meteohub,2013-09-12 12:05:00,
2013-09-12 05:10:00,65.1,60.4,29.97,North,355,1.0,1.0,85,0.00,,,0.00,0.0,meteohub,2013-09-12 12:10:00,
2013-09-12 05:15:00,65.1,60.1,29.97,North,355,0.0,1.0,84,0.00,,,0.00,0.0,meteohub,2013-09-12 12:15:00,
2013-09-12 05:20:00,64.9,59.4,29.97,North,355,0.0,1.0,82,0.00,,,0.00,0.0,meteohub,2013-09-12 12:20:00,
2013-09-12 05:25:00,65.1,59.2,29.97,North,355,0.0,1.0,81,0.00,,,0.00,0.0,meteohub,2013-09-12 12:25:00,
2013-09-12 05:30:00,65.1,58.8,29.97,North,355,0.0,1.0,80,0.00,,,0.00,0.0,meteohub,2013-09-12 12:30:00,
2013-09-12 05:35:00,65.1,58.8,29.97,North,355,0.0,1.0,80,0.00,,,0.00,0.0,meteohub,2013-09-12 12:35:00,
2013-09-12 05:40:00,65.3,59.7,29.97,North,355,0.0,1.0,82,0.00,,,0.00,0.0,meteohub,2013-09-12 12:40:00,
2013-09-12 05:45:00,65.1,60.1,29.97,North,355,0.0,1.0,84,0.00,,,0.00,0.0,meteohub,2013-09-12 12:45:00,
2013-09-12 05:50:00,64.9,59.7,29.97,North,355,0.0,1.0,83,0.00,,,0.00,0.0,meteohub,2013-09-12 12:50:00,
2013-09-12 05:56:00,64.9,60.3,29.97,North,355,0.0,1.0,85,0.00,,,0.00,0.0,meteohub,2013-09-12 12:56:00,
2013-09-12 06:01:00,64.8,60.1,29.97,North,355,0.0,0.0,85,0.00,,,0.00,0.0,meteohub,2013-09-12 13:01:00,
2013-09-12 06:06:00,64.8,60.1,29.97,North,355,0.0,1.0,85,0.00,,,0.00,5.0,meteohub,2013-09-12 13:06:00,
2013-09-12 06:11:00,64.6,60.3,29.97,North,355,0.0,1.0,86,0.00,,,0.00,11.0,meteohub,2013-09-12 13:11:00,
2013-09-12 06:16:00,64.2,60.3,29.97,North,355,0.0,1.0,87,0.00,,,0.00,14.0,meteohub,2013-09-12 13:16:00,
2013-09-12 06:21:00,64.2,60.3,29.98,North,355,0.0,0.0,87,0.00,,,0.00,16.0,meteohub,2013-09-12 13:21:00,
2013-09-12 06:26:00,64.0,60.1,29.98,North,355,0.0,0.0,87,0.00,,,0.00,19.0,meteohub,2013-09-12 13:26:00,
2013-09-12 06:31:00,64.0,60.1,29.98,North,355,0.0,1.0,87,0.00,,,0.00,21.0,meteohub,2013-09-12 13:31:00,
2013-09-12 06:36:00,64.2,60.6,29.98,North,355,0.0,1.0,88,0.00,,,0.00,47.0,meteohub,2013-09-12 13:36:00,
2013-09-12 06:41:00,64.8,60.8,29.98,North,355,0.0,1.0,87,0.00,,,0.00,62.0,meteohub,2013-09-12 13:41:00,
2013-09-12 06:46:00,65.5,60.4,29.98,North,355,0.0,0.0,84,0.00,,,0.00,74.0,meteohub,2013-09-12 13:46:00,
2013-09-12 06:51:00,66.4,60.4,29.98,North,355,0.0,0.0,81,0.00,,,0.00,86.0,meteohub,2013-09-12 13:51:00,
2013-09-12 06:56:00,67.5,61.2,29.99,North,355,0.0,0.0,80,0.00,,,0.00,105.0,meteohub,2013-09-12 13:56:00,
2013-09-12 07:01:00,68.4,59.0,29.99,North,355,1.0,0.0,72,0.00,,,0.00,127.0,meteohub,2013-09-12 14:01:00,
2013-09-12 07:06:00,69.3,59.0,29.99,North,355,1.0,2.0,70,0.00,,,0.00,148.0,meteohub,2013-09-12 14:06:00,
2013-09-12 07:11:00,69.8,59.5,29.99,North,355,1.0,2.0,70,0.00,,,0.00,171.0,meteohub,2013-09-12 14:11:00,
2013-09-12 07:16:00,70.3,59.4,29.99,North,355,0.0,2.0,68,0.00,,,0.00,40.0,meteohub,2013-09-12 14:16:00,
2013-09-12 07:21:00,70.3,59.7,29.99,North,355,0.0,2.0,69,0.00,,,0.00,44.0,meteohub,2013-09-12 14:21:00,
2013-09-12 07:26:00,70.3,60.1,29.99,North,355,0.0,2.0,70,0.00,,,0.00,163.0,meteohub,2013-09-12 14:26:00,
2013-09-12 07:31:00,70.5,60.3,29.99,North,355,1.0,2.0,70,0.00,,,0.00,151.0,meteohub,2013-09-12 14:31:00,
2013-09-12 07:36:00,70.9,60.3,29.99,North,355,0.0,2.0,69,0.00,,,0.00,264.0,meteohub,2013-09-12 14:36:00,
2013-09-12 07:41:00,71.4,60.8,29.99,North,355,0.0,2.0,69,0.00,,,0.00,283.0,meteohub,2013-09-12 14:41:00,
2013-09-12 07:46:00,72.1,60.6,29.99,North,355,1.0,2.0,67,0.00,,,0.00,288.0,meteohub,2013-09-12 14:46:00,
2013-09-12 07:51:00,73.2,60.8,29.99,North,355,1.0,2.0,65,0.00,,,0.00,209.0,meteohub,2013-09-12 14:51:00,
2013-09-12 07:56:00,73.9,60.6,29.99,North,355,1.0,2.0,63,0.00,,,0.00,346.0,meteohub,2013-09-12 14:56:00,
2013-09-12 08:01:00,74.5,60.6,29.99,North,355,0.0,2.0,62,0.00,,,0.00,253.0,meteohub,2013-09-12 15:01:00,
2013-09-12 08:06:00,74.7,59.9,29.99,North,355,0.0,2.0,60,0.00,,,0.00,202.0,meteohub,2013-09-12 15:06:00,
2013-09-12 08:11:00,75.2,60.4,29.99,North,355,0.0,2.0,60,0.00,,,0.00,397.0,meteohub,2013-09-12 15:11:00,
2013-09-12 08:16:00,75.9,60.1,29.99,North,355,0.0,1.0,58,0.00,,,0.00,408.0,meteohub,2013-09-12 15:16:00,
2013-09-12 08:21:00,76.8,60.4,29.99,North,355,0.0,1.0,57,0.00,,,0.00,424.0,meteohub,2013-09-12 15:21:00,
2013-09-12 08:26:00,77.5,60.1,29.99,North,355,1.0,1.0,55,0.00,,,0.00,439.0,meteohub,2013-09-12 15:26:00,
2013-09-12 08:31:00,77.7,60.3,29.99,WSW,241,1.0,2.0,55,0.00,,,0.00,457.0,meteohub,2013-09-12 15:31:00,
2013-09-12 08:36:00,77.5,60.1,29.99,SW,227,2.0,3.0,55,0.00,,,0.00,471.0,meteohub,2013-09-12 15:36:00,
2013-09-12 08:41:00,77.2,59.7,29.99,WSW,241,1.0,3.0,55,0.00,,,0.00,489.0,meteohub,2013-09-12 15:41:00,
2013-09-12 08:46:00,77.2,59.7,29.99,SW,225,4.0,4.0,55,0.00,,,0.00,504.0,meteohub,2013-09-12 15:46:00,
2013-09-12 08:51:00,77.4,58.8,29.99,SW,225,0.0,4.0,53,0.00,,,0.00,522.0,meteohub,2013-09-12 15:51:00,
2013-09-12 08:56:00,78.1,60.1,29.99,SSE,157,1.0,4.0,54,0.00,,,0.00,536.0,meteohub,2013-09-12 15:56:00,
2013-09-12 09:01:00,78.8,60.3,29.99,SW,227,1.0,4.0,53,0.00,,,0.00,552.0,meteohub,2013-09-12 16:01:00,
2013-09-12 09:06:00,79.2,59.5,29.99,SW,217,2.0,4.0,51,0.00,,,0.00,570.0,meteohub,2013-09-12 16:06:00,
2013-09-12 09:11:00,79.5,59.7,29.99,WSW,237,2.0,4.0,51,0.00,,,0.00,582.0,meteohub,2013-09-12 16:11:00,
2013-09-12 09:16:00,80.1,59.2,29.99,SW,225,2.0,3.0,49,0.00,,,0.00,599.0,meteohub,2013-09-12 16:16:00,
2013-09-12 09:21:00,80.4,55.9,29.99,West,261,1.0,4.0,43,0.00,,,0.00,612.0,meteohub,2013-09-12 16:21:00,
2013-09-12 09:26:00,80.6,58.5,29.99,West,266,3.0,4.0,47,0.00,,,0.00,628.0,meteohub,2013-09-12 16:26:00,
2013-09-12 09:32:00,81.0,58.3,29.99,SW,219,4.0,4.0,46,0.00,,,0.00,643.0,meteohub,2013-09-12 16:32:00,
2013-09-12 09:37:00,81.1,57.7,29.99,SW,232,3.0,5.0,45,0.00,,,0.00,663.0,meteohub,2013-09-12 16:37:00,
2013-09-12 09:42:00,81.9,57.2,29.99,West,267,4.0,5.0,43,0.00,,,0.00,707.0,meteohub,2013-09-12 16:42:00,
2013-09-12 09:47:00,81.9,57.2,29.99,NW,311,3.0,5.0,43,0.00,,,0.00,350.0,meteohub,2013-09-12 16:47:00,
2013-09-12 09:52:00,81.9,57.7,29.99,SSW,195,3.0,4.0,44,0.00,,,0.00,353.0,meteohub,2013-09-12 16:52:00,
2013-09-12 09:57:00,81.7,58.3,29.99,WSW,257,1.0,5.0,45,0.00,,,0.00,334.0,meteohub,2013-09-12 16:57:00,
2013-09-12 10:02:00,81.7,58.8,29.99,SW,225,3.0,5.0,46,0.00,,,0.00,394.0,meteohub,2013-09-12 17:02:00,
2013-09-12 10:07:00,81.7,59.5,29.99,SW,218,3.0,5.0,47,0.00,,,0.00,403.0,meteohub,2013-09-12 17:07:00,
2013-09-12 10:12:00,81.9,58.5,29.99,WSW,257,3.0,5.0,45,0.00,,,0.00,504.0,meteohub,2013-09-12 17:12:00,
2013-09-12 10:17:00,82.4,57.7,29.98,WSW,257,4.0,4.0,43,0.00,,,0.00,865.0,meteohub,2013-09-12 17:17:00,
2013-09-12 10:22:00,83.3,58.5,29.98,SW,223,4.0,4.0,43,0.00,,,0.00,789.0,meteohub,2013-09-12 17:22:00,
2013-09-12 10:27:00,83.7,58.1,29.98,WNW,289,2.0,5.0,42,0.00,,,0.00,786.0,meteohub,2013-09-12 17:27:00,
2013-09-12 10:32:00,84.0,57.7,29.98,SSW,204,3.0,5.0,41,0.00,,,0.00,788.0,meteohub,2013-09-12 17:32:00,
2013-09-12 10:37:00,84.6,58.3,29.98,SW,226,4.0,5.0,41,0.00,,,0.00,795.0,meteohub,2013-09-12 17:37:00,
2013-09-12 10:42:00,84.7,57.7,29.97,WSW,255,3.0,9.0,40,0.00,,,0.00,803.0,meteohub,2013-09-12 17:42:00,
2013-09-12 10:47:00,85.3,58.3,29.97,SSW,205,2.0,9.0,40,0.00,,,0.00,810.0,meteohub,2013-09-12 17:47:00,
2013-09-12 10:52:00,85.5,57.0,29.97,SSW,212,1.0,6.0,38,0.00,,,0.00,823.0,meteohub,2013-09-12 17:52:00,
2013-09-12 10:57:00,85.5,56.3,29.97,West,273,4.0,7.0,37,0.00,,,0.00,830.0,meteohub,2013-09-12 17:57:00,
2013-09-12 11:02:00,85.8,57.2,29.96,South,187,2.0,7.0,38,0.00,,,0.00,838.0,meteohub,2013-09-12 18:02:00,
2013-09-12 11:07:00,86.5,57.9,29.96,SSW,194,5.0,6.0,38,0.00,,,0.00,846.0,meteohub,2013-09-12 18:07:00,
2013-09-12 11:12:00,87.1,57.6,29.96,NW,325,1.0,7.0,37,0.00,,,0.00,853.0,meteohub,2013-09-12 18:12:00,
2013-09-12 11:17:00,87.3,58.6,29.96,NW,322,2.0,7.0,38,0.00,,,0.00,861.0,meteohub,2013-09-12 18:17:00,
2013-09-12 11:22:00,87.6,58.1,29.96,NE,51,4.0,7.0,37,0.00,,,0.00,865.0,meteohub,2013-09-12 18:22:00,
2013-09-12 11:27:00,87.8,58.3,29.95,WNW,292,2.0,5.0,37,0.00,,,0.00,874.0,meteohub,2013-09-12 18:27:00,
2013-09-12 11:32:00,88.0,57.7,29.95,West,261,1.0,5.0,36,0.00,,,0.00,879.0,meteohub,2013-09-12 18:32:00,
2013-09-12 11:37:00,88.3,58.8,29.95,SW,224,3.0,6.0,37,0.00,,,0.00,882.0,meteohub,2013-09-12 18:37:00,
2013-09-12 11:42:00,89.1,58.6,29.94,WSW,247,5.0,8.0,36,0.00,,,0.00,888.0,meteohub,2013-09-12 18:42:00,
2013-09-12 11:47:00,89.1,58.6,29.94,SSW,209,3.0,8.0,36,0.00,,,0.00,889.0,meteohub,2013-09-12 18:47:00,
2013-09-12 11:52:00,89.4,59.7,29.94,WSW,252,2.0,8.0,37,0.00,,,0.00,891.0,meteohub,2013-09-12 18:52:00,
2013-09-12 11:57:00,89.8,58.5,29.94,WSW,249,2.0,7.0,35,0.00,,,0.00,898.0,meteohub,2013-09-12 18:57:00,
2013-09-12 12:02:00,90.1,58.8,29.93,WSW,239,4.0,7.0,35,0.00,,,0.00,900.0,meteohub,2013-09-12 19:02:00,
2013-09-12 12:07:00,90.0,59.4,29.93,West,264,2.0,7.0,36,0.00,,,0.00,904.0,meteohub,2013-09-12 19:07:00,
2013-09-12 12:12:00,89.8,58.5,29.93,NW,326,3.0,7.0,35,0.00,,,0.00,904.0,meteohub,2013-09-12 19:12:00,
2013-09-12 12:17:00,90.1,57.9,29.93,NE,46,3.0,7.0,34,0.00,,,0.00,905.0,meteohub,2013-09-12 19:17:00,
2013-09-12 12:22:00,90.3,59.7,29.93,WNW,292,2.0,7.0,36,0.00,,,0.00,905.0,meteohub,2013-09-12 19:22:00,
2013-09-12 12:27:00,90.7,59.2,29.92,WNW,298,3.0,7.0,35,0.00,,,0.00,907.0,meteohub,2013-09-12 19:27:00,
2013-09-12 12:32:00,91.0,58.8,29.92,WNW,284,4.0,8.0,34,0.00,,,0.00,909.0,meteohub,2013-09-12 19:32:00,
2013-09-12 12:37:00,91.0,58.8,29.92,WSW,239,2.0,10.0,34,0.00,,,0.00,905.0,meteohub,2013-09-12 19:37:00,
2013-09-12 12:42:00,91.0,57.9,29.92,West,259,2.0,10.0,33,0.00,,,0.00,909.0,meteohub,2013-09-12 19:42:00,
2013-09-12 12:47:00,91.8,59.4,29.91,SW,234,4.0,10.0,34,0.00,,,0.00,911.0,meteohub,2013-09-12 19:47:00,
2013-09-12 12:52:00,91.9,58.6,29.91,West,271,7.0,8.0,33,0.00,,,0.00,905.0,meteohub,2013-09-12 19:52:00,
2013-09-12 12:57:00,91.9,58.6,29.91,South,175,1.0,8.0,33,0.00,,,0.00,904.0,meteohub,2013-09-12 19:57:00,
2013-09-12 13:02:00,92.3,58.1,29.91,West,280,2.0,8.0,32,0.00,,,0.00,905.0,meteohub,2013-09-12 20:02:00,
2013-09-12 13:07:00,92.1,58.1,29.91,NW,308,2.0,10.0,32,0.00,,,0.00,898.0,meteohub,2013-09-12 20:07:00,
2013-09-12 13:12:00,92.3,58.1,29.90,North,11,3.0,10.0,32,0.00,,,0.00,891.0,meteohub,2013-09-12 20:12:00,
2013-09-12 13:17:00,92.3,58.1,29.90,NW,323,3.0,8.0,32,0.00,,,0.00,888.0,meteohub,2013-09-12 20:17:00,
2013-09-12 13:22:00,92.7,58.5,29.90,WSW,256,4.0,8.0,32,0.00,,,0.00,889.0,meteohub,2013-09-12 20:22:00,
2013-09-12 13:27:00,93.0,57.9,29.90,SW,225,4.0,8.0,31,0.00,,,0.00,886.0,meteohub,2013-09-12 20:27:00,
2013-09-12 13:32:00,93.6,58.5,29.90,West,259,2.0,8.0,31,0.00,,,0.00,881.0,meteohub,2013-09-12 20:32:00,
2013-09-12 13:37:00,93.7,58.5,29.89,West,262,1.0,7.0,31,0.00,,,0.00,877.0,meteohub,2013-09-12 20:37:00,
2013-09-12 13:42:00,93.6,57.4,29.89,NE,53,1.0,7.0,30,0.00,,,0.00,868.0,meteohub,2013-09-12 20:42:00,
2013-09-12 13:47:00,94.1,57.0,29.88,West,267,3.0,7.0,29,0.00,,,0.00,863.0,meteohub,2013-09-12 20:47:00,
2013-09-12 13:52:00,94.1,57.0,29.88,SW,222,1.0,9.0,29,0.00,,,0.00,854.0,meteohub,2013-09-12 20:52:00,
2013-09-12 13:57:00,93.7,56.7,29.88,West,274,5.0,9.0,29,0.00,,,0.00,849.0,meteohub,2013-09-12 20:57:00,
2013-09-12 14:02:00,93.7,56.7,29.88,WSW,242,4.0,9.0,29,0.00,,,0.00,840.0,meteohub,2013-09-12 21:02:00,
2013-09-12 14:07:00,93.9,56.8,29.88,SW,229,3.0,9.0,29,0.00,,,0.00,833.0,meteohub,2013-09-12 21:07:00,
2013-09-12 14:12:00,94.3,57.2,29.87,West,261,4.0,9.0,29,0.00,,,0.00,821.0,meteohub,2013-09-12 21:12:00,
2013-09-12 14:17:00,93.9,56.8,29.87,West,277,2.0,7.0,29,0.00,,,0.00,809.0,meteohub,2013-09-12 21:17:00,
2013-09-12 14:22:00,93.9,57.7,29.87,WNW,284,2.0,7.0,30,0.00,,,0.00,798.0,meteohub,2013-09-12 21:22:00,
2013-09-12 14:27:00,94.3,57.2,29.87,SSW,203,4.0,8.0,29,0.00,,,0.00,791.0,meteohub,2013-09-12 21:27:00,
2013-09-12 14:32:00,94.3,57.2,29.86,North,5,2.0,10.0,29,0.00,,,0.00,775.0,meteohub,2013-09-12 21:32:00,
2013-09-12 14:37:00,94.6,57.4,29.86,SSW,198,3.0,10.0,29,0.00,,,0.00,766.0,meteohub,2013-09-12 21:37:00,
2013-09-12 14:42:00,94.6,57.4,29.86,WNW,287,3.0,10.0,29,0.00,,,0.00,756.0,meteohub,2013-09-12 21:42:00,
2013-09-12 14:47:00,94.8,56.7,29.86,NNW,343,2.0,9.0,28,0.00,,,0.00,749.0,meteohub,2013-09-12 21:47:00,
2013-09-12 14:52:00,95.2,57.0,29.85,SSW,202,1.0,9.0,28,0.00,,,0.00,735.0,meteohub,2013-09-12 21:52:00,
2013-09-12 14:57:00,95.5,57.2,29.85,WSW,243,5.0,9.0,28,0.00,,,0.00,719.0,meteohub,2013-09-12 21:57:00,
2013-09-12 15:02:00,95.2,55.9,29.85,SW,233,3.0,7.0,27,0.00,,,0.00,708.0,meteohub,2013-09-12 22:02:00,
2013-09-12 15:07:00,94.8,55.6,29.85,SE,140,1.0,7.0,27,0.00,,,0.00,696.0,meteohub,2013-09-12 22:07:00,
2013-09-12 15:12:00,94.6,55.4,29.85,SSW,200,3.0,7.0,27,0.00,,,0.00,684.0,meteohub,2013-09-12 22:12:00,
2013-09-12 15:17:00,94.8,56.7,29.84,South,186,3.0,7.0,28,0.00,,,0.00,668.0,meteohub,2013-09-12 22:17:00,
2013-09-12 15:22:00,95.0,56.8,29.84,WSW,255,6.0,6.0,28,0.00,,,0.00,663.0,meteohub,2013-09-12 22:22:00,
2013-09-12 15:27:00,94.8,56.7,29.84,NNW,346,2.0,8.0,28,0.00,,,0.00,652.0,meteohub,2013-09-12 22:27:00,
2013-09-12 15:32:00,95.0,55.8,29.84,West,280,3.0,8.0,27,0.00,,,0.00,649.0,meteohub,2013-09-12 22:32:00,
2013-09-12 15:37:00,95.0,56.8,29.84,SW,223,2.0,8.0,28,0.00,,,0.00,643.0,meteohub,2013-09-12 22:37:00,
2013-09-12 15:42:00,95.7,56.3,29.83,West,270,7.0,8.0,27,0.00,,,0.00,633.0,meteohub,2013-09-12 22:42:00,
2013-09-12 15:47:00,95.4,55.0,29.84,South,180,3.0,10.0,26,0.00,,,0.00,624.0,meteohub,2013-09-12 22:47:00,
2013-09-12 15:52:00,95.2,55.9,29.84,West,273,2.0,10.0,27,0.00,,,0.00,594.0,meteohub,2013-09-12 22:52:00,
2013-09-12 15:57:00,95.4,57.0,29.84,West,269,4.0,10.0,28,0.00,,,0.00,570.0,meteohub,2013-09-12 22:57:00,
2013-09-12 16:02:00,95.4,55.0,29.83,WSW,254,2.0,8.0,26,0.00,,,0.00,561.0,meteohub,2013-09-12 23:02:00,
2013-09-12 16:07:00,95.5,56.3,29.83,West,263,4.0,9.0,27,0.00,,,0.00,554.0,meteohub,2013-09-12 23:07:00,
2013-09-12 16:12:00,95.7,56.3,29.83,NW,322,5.0,11.0,27,0.00,,,0.00,563.0,meteohub,2013-09-12 23:12:00,
2013-09-12 16:17:00,95.5,57.2,29.83,WNW,300,8.0,11.0,28,0.00,,,0.00,550.0,meteohub,2013-09-12 23:17:00,
2013-09-12 16:22:00,94.6,55.4,29.83,WNW,300,3.0,10.0,27,0.00,,,0.00,489.0,meteohub,2013-09-12 23:22:00,
2013-09-12 16:27:00,93.9,56.8,29.83,NW,322,3.0,10.0,29,0.00,,,0.00,476.0,meteohub,2013-09-12 23:27:00,
2013-09-12 16:32:00,93.9,56.8,29.83,East,82,3.0,9.0,29,0.00,,,0.00,478.0,meteohub,2013-09-12 23:32:00,
2013-09-12 16:37:00,93.9,55.9,29.83,NNW,341,5.0,8.0,28,0.00,,,0.00,330.0,meteohub,2013-09-12 23:37:00,
2013-09-12 16:42:00,93.4,56.3,29.83,NW,309,1.0,8.0,29,0.00,,,0.00,98.0,meteohub,2013-09-12 23:42:00,
2013-09-12 16:47:00,93.6,56.5,29.83,NE,42,1.0,7.0,29,0.00,,,0.00,394.0,meteohub,2013-09-12 23:47:00,
2013-09-12 16:52:00,93.9,56.8,29.82,NNW,331,3.0,7.0,29,0.00,,,0.00,373.0,meteohub,2013-09-12 23:52:00,
2013-09-12 16:57:00,94.5,57.4,29.82,NNW,337,5.0,5.0,29,0.00,,,0.00,341.0,meteohub,2013-09-12 23:57:00,
2013-09-12 17:02:00,94.3,57.2,29.83,WNW,300,1.0,5.0,29,0.00,,,0.00,322.0,meteohub,2013-09-13 00:02:00,
2013-09-12 17:07:00,94.3,55.2,29.82,West,275,5.0,5.0,27,0.00,,,0.00,301.0,meteohub,2013-09-13 00:07:00,
2013-09-12 17:12:00,93.6,54.5,29.82,WSW,248,3.0,8.0,27,0.00,,,0.00,287.0,meteohub,2013-09-13 00:12:00,
2013-09-12 17:17:00,93.0,55.0,29.82,West,260,6.0,12.0,28,0.00,,,0.00,279.0,meteohub,2013-09-13 00:17:00,
2013-09-12 17:22:00,92.5,54.7,29.82,West,276,4.0,14.0,28,0.00,,,0.00,264.0,meteohub,2013-09-13 00:22:00,
2013-09-12 17:27:00,92.5,54.7,29.83,WSW,245,3.0,14.0,28,0.00,,,0.00,243.0,meteohub,2013-09-13 00:27:00,
2013-09-12 17:32:00,92.1,54.3,29.82,SW,232,4.0,12.0,28,0.00,,,0.00,216.0,meteohub,2013-09-13 00:32:00,
2013-09-12 17:37:00,91.8,54.0,29.83,WSW,257,11.0,12.0,28,0.00,,,0.00,195.0,meteohub,2013-09-13 00:37:00,
2013-09-12 17:42:00,91.4,53.8,29.83,WNW,288,8.0,11.0,28,0.00,,,0.00,155.0,meteohub,2013-09-13 00:42:00,
2013-09-12 17:47:00,91.2,53.6,29.83,West,261,3.0,11.0,28,0.00,,,0.00,128.0,meteohub,2013-09-13 00:47:00,
2013-09-12 17:52:00,91.0,52.3,29.83,WSW,246,3.0,11.0,27,0.00,,,0.00,104.0,meteohub,2013-09-13 00:52:00,
2013-09-12 17:57:00,90.9,53.2,29.83,WNW,303,1.0,15.0,28,0.00,,,0.00,88.0,meteohub,2013-09-13 00:57:00,
2013-09-12 18:02:00,90.9,52.3,29.83,NW,313,5.0,15.0,27,0.00,,,0.00,72.0,meteohub,2013-09-13 01:02:00,
2013-09-12 18:07:00,90.7,53.1,29.83,WNW,292,2.0,15.0,28,0.00,,,0.00,58.0,meteohub,2013-09-13 01:07:00,
2013-09-12 18:12:00,90.5,52.0,29.83,West,273,5.0,7.0,27,0.00,,,0.00,40.0,meteohub,2013-09-13 01:12:00,
2013-09-12 18:17:00,90.0,51.4,29.83,WNW,285,3.0,8.0,27,0.00,,,0.00,30.0,meteohub,2013-09-13 01:17:00,
2013-09-12 18:22:00,89.6,53.1,29.84,WNW,296,2.0,13.0,29,0.00,,,0.00,21.0,meteohub,2013-09-13 01:22:00,
2013-09-12 18:27:00,89.4,54.9,29.84,SE,144,1.0,13.0,31,0.00,,,0.00,14.0,meteohub,2013-09-13 01:27:00,
2013-09-12 18:32:00,89.2,54.7,29.84,SE,125,2.0,10.0,31,0.00,,,0.00,7.0,meteohub,2013-09-13 01:32:00,
2013-09-12 18:37:00,89.1,55.4,29.84,SE,140,1.0,8.0,32,0.00,,,0.00,0.0,meteohub,2013-09-13 01:37:00,
2013-09-12 18:42:00,88.7,56.7,29.84,ENE,74,3.0,5.0,34,0.00,,,0.00,0.0,meteohub,2013-09-13 01:42:00,
2013-09-12 18:47:00,88.3,57.9,29.84,ESE,117,1.0,7.0,36,0.00,,,0.00,0.0,meteohub,2013-09-13 01:47:00,
2013-09-12 18:52:00,88.0,57.7,29.84,East,90,1.0,7.0,36,0.00,,,0.00,0.0,meteohub,2013-09-13 01:52:00,
2013-09-12 18:57:00,87.6,58.1,29.84,East,90,0.0,7.0,37,0.00,,,0.00,0.0,meteohub,2013-09-13 01:57:00,
2013-09-12 19:02:00,87.3,58.6,29.85,East,90,1.0,3.0,38,0.00,,,0.00,0.0,meteohub,2013-09-13 02:02:00,
2013-09-12 19:07:00,87.1,56.8,29.85,East,90,1.0,2.0,36,0.00,,,0.00,0.0,meteohub,2013-09-13 02:07:00,
2013-09-12 19:12:00,86.7,58.8,29.86,East,82,2.0,2.0,39,0.00,,,0.00,0.0,meteohub,2013-09-13 02:12:00,
2013-09-12 19:17:00,86.4,61.2,29.86,East,81,7.0,7.0,43,0.00,,,0.00,0.0,meteohub,2013-09-13 02:17:00,
2013-09-12 19:22:00,85.5,61.7,29.86,ENE,78,7.0,13.0,45,0.00,,,0.00,0.0,meteohub,2013-09-13 02:22:00,
2013-09-12 19:28:00,84.7,61.0,29.86,ENE,57,8.0,15.0,45,0.00,,,0.00,0.0,meteohub,2013-09-13 02:28:00,
2013-09-12 19:33:00,84.4,61.3,29.86,ENE,73,5.0,15.0,46,0.00,,,0.00,0.0,meteohub,2013-09-13 02:33:00,
2013-09-12 19:38:00,84.0,61.0,29.87,ENE,59,7.0,15.0,46,0.00,,,0.00,0.0,meteohub,2013-09-13 02:38:00,
2013-09-12 19:43:00,83.7,60.6,29.87,NE,47,7.0,16.0,46,0.00,,,0.00,0.0,meteohub,2013-09-13 02:43:00,
2013-09-12 19:48:00,83.7,60.6,29.87,ENE,65,5.0,16.0,46,0.00,,,0.00,0.0,meteohub,2013-09-13 02:48:00,
2013-09-12 19:53:00,83.5,60.4,29.88,East,79,3.0,12.0,46,0.00,,,0.00,0.0,meteohub,2013-09-13 02:53:00,
2013-09-12 19:58:00,83.5,60.4,29.88,ENE,71,5.0,12.0,46,0.00,,,0.00,0.0,meteohub,2013-09-13 02:58:00,
2013-09-12 20:03:00,83.5,60.4,29.88,NE,40,3.0,12.0,46,0.00,,,0.00,0.0,meteohub,2013-09-13 03:03:00,
2013-09-12 20:08:00,83.5,60.4,29.88,East,81,7.0,12.0,46,0.00,,,0.00,0.0,meteohub,2013-09-13 03:08:00,
2013-09-12 20:13:00,83.5,60.4,29.88,NE,45,6.0,14.0,46,0.00,,,0.00,0.0,meteohub,2013-09-13 03:13:00,
2013-09-12 20:18:00,83.5,59.9,29.89,ENE,61,5.0,14.0,45,0.00,,,0.00,0.0,meteohub,2013-09-13 03:18:00,
2013-09-12 20:23:00,83.3,59.7,29.89,East,84,6.0,14.0,45,0.00,,,0.00,0.0,meteohub,2013-09-13 03:23:00,
2013-09-12 20:28:00,83.1,60.3,29.89,ENE,73,11.0,14.0,46,0.00,,,0.00,0.0,meteohub,2013-09-13 03:28:00,
2013-09-12 20:33:00,82.9,60.6,29.89,NNE,15,6.0,14.0,47,0.00,,,0.00,0.0,meteohub,2013-09-13 03:33:00,
2013-09-12 20:38:00,82.8,60.4,29.90,NNE,32,5.0,14.0,47,0.00,,,0.00,0.0,meteohub,2013-09-13 03:38:00,
2013-09-12 20:43:00,82.8,61.0,29.90,NE,50,4.0,15.0,48,0.00,,,0.00,0.0,meteohub,2013-09-13 03:43:00,
2013-09-12 20:48:00,82.6,61.0,29.90,NE,47,5.0,15.0,48,0.00,,,0.00,0.0,meteohub,2013-09-13 03:48:00,
2013-09-12 20:53:00,82.6,61.5,29.90,NNE,19,8.0,12.0,49,0.00,,,0.00,0.0,meteohub,2013-09-13 03:53:00,
2013-09-12 20:58:00,82.6,61.5,29.90,NE,42,9.0,11.0,49,0.00,,,0.00,0.0,meteohub,2013-09-13 03:58:00,
2013-09-12 21:01:00,82.6,61.5,29.90,NNE,28,5.0,12.0,49,0.00,,,0.00,0.0,meteohub,2013-09-13 04:01:00,
2013-09-12 21:02:00,82.6,61.5,29.90,NNE,26,9.0,12.0,49,0.00,,,0.00,0.0,meteohub,2013-09-13 04:02:00,
2013-09-12 21:04:00,82.6,61.5,29.90,East,85,7.0,12.0,49,0.00,,,0.00,0.0,meteohub,2013-09-13 04:04:00,
2013-09-12 21:09:00,82.6,62.1,29.90,NE,40,6.0,15.0,50,0.00,,,0.00,0.0,meteohub,2013-09-13 04:09:00,
2013-09-12 21:14:00,82.4,61.9,29.90,NE,54,7.0,15.0,50,0.00,,,0.00,0.0,meteohub,2013-09-13 04:14:00,
2013-09-12 21:19:00,82.2,61.7,29.91,NE,55,6.0,15.0,50,0.00,,,0.00,0.0,meteohub,2013-09-13 04:19:00,
2013-09-12 21:24:00,82.0,61.5,29.91,ENE,77,13.0,15.0,50,0.00,,,0.00,0.0,meteohub,2013-09-13 04:24:00,
2013-09-12 21:29:00,81.9,61.3,29.91,NNE,28,6.0,15.0,50,0.00,,,0.00,0.0,meteohub,2013-09-13 04:29:00,
2013-09-12 21:34:00,81.7,60.6,29.91,NNE,19,10.0,15.0,49,0.00,,,0.00,0.0,meteohub,2013-09-13 04:34:00,
2013-09-12 21:39:00,81.7,59.5,29.91,ENE,57,8.0,14.0,47,0.00,,,0.00,0.0,meteohub,2013-09-13 04:39:00,
2013-09-12 21:44:00,82.0,58.6,29.91,NE,44,5.0,14.0,45,0.00,,,0.00,0.0,meteohub,2013-09-13 04:44:00,
2013-09-12 21:49:00,82.2,58.1,29.91,ENE,58,8.0,14.0,44,0.00,,,0.00,0.0,meteohub,2013-09-13 04:49:00,
2013-09-12 21:54:00,82.6,59.0,29.91,NNE,32,5.0,13.0,45,0.00,,,0.00,0.0,meteohub,2013-09-13 04:54:00,
2013-09-12 21:59:00,82.6,57.7,29.91,East,85,8.0,12.0,43,0.00,,,0.00,0.0,meteohub,2013-09-13 04:59:00,
2013-09-12 22:04:00,82.6,57.7,29.91,East,86,9.0,14.0,43,0.00,,,0.00,0.0,meteohub,2013-09-13 05:04:00,
2013-09-12 22:09:00,82.6,57.7,29.91,East,90,6.0,14.0,43,0.00,,,0.00,0.0,meteohub,2013-09-13 05:09:00,
2013-09-12 22:14:00,82.4,57.7,29.91,NNE,26,7.0,14.0,43,0.00,,,0.00,0.0,meteohub,2013-09-13 05:14:00,
2013-09-12 22:19:00,82.2,57.6,29.91,NE,36,10.0,13.0,43,0.00,,,0.00,0.0,meteohub,2013-09-13 05:19:00,
2013-09-12 22:24:00,82.0,57.4,29.91,NE,34,6.0,15.0,43,0.00,,,0.00,0.0,meteohub,2013-09-13 05:24:00,
2013-09-12 22:29:00,82.0,57.4,29.91,ENE,61,8.0,15.0,43,0.00,,,0.00,0.0,meteohub,2013-09-13 05:29:00,
2013-09-12 22:34:00,82.0,56.7,29.91,NE,51,4.0,16.0,42,0.00,,,0.00,0.0,meteohub,2013-09-13 05:34:00,
2013-09-12 22:39:00,82.0,57.4,29.90,NE,49,6.0,16.0,43,0.00,,,0.00,0.0,meteohub,2013-09-13 05:39:00,
2013-09-12 22:44:00,82.0,57.4,29.90,ENE,71,3.0,16.0,43,0.00,,,0.00,0.0,meteohub,2013-09-13 05:44:00,
2013-09-12 22:49:00,81.9,56.5,29.90,NE,53,6.0,13.0,42,0.00,,,0.00,0.0,meteohub,2013-09-13 05:49:00,
2013-09-12 22:54:00,81.9,57.7,29.90,ENE,60,5.0,13.0,44,0.00,,,0.00,0.0,meteohub,2013-09-13 05:54:00,
2013-09-12 22:59:00,81.7,57.6,29.90,ENE,68,7.0,13.0,44,0.00,,,0.00,0.0,meteohub,2013-09-13 05:59:00,
2013-09-12 23:04:00,81.5,56.8,29.90,NE,55,9.0,13.0,43,0.00,,,0.00,0.0,meteohub,2013-09-13 06:04:00,
2013-09-12 23:09:00,81.7,57.0,29.90,East,88,5.0,14.0,43,0.00,,,0.00,0.0,meteohub,2013-09-13 06:09:00,
2013-09-12 23:14:00,81.7,57.0,29.90,ENE,61,3.0,14.0,43,0.00,,,0.00,0.0,meteohub,2013-09-13 06:14:00,
2013-09-12 23:19:00,81.5,56.1,29.90,ENE,66,7.0,14.0,42,0.00,,,0.00,0.0,meteohub,2013-09-13 06:19:00,
2013-09-12 23:24:00,81.5,56.1,29.89,East,84,5.0,14.0,42,0.00,,,0.00,0.0,meteohub,2013-09-13 06:24:00,
2013-09-12 23:29:00,81.3,54.7,29.89,SE,140,2.0,9.0,40,0.00,,,0.00,0.0,meteohub,2013-09-13 06:29:00,
2013-09-12 23:34:00,81.3,55.4,29.89,ESE,105,3.0,8.0,41,0.00,,,0.00,0.0,meteohub,2013-09-13 06:34:00,
2013-09-12 23:39:00,81.1,57.2,29.89,East,100,6.0,7.0,44,0.00,,,0.00,0.0,meteohub,2013-09-13 06:39:00,
2013-09-12 23:44:00,80.2,57.0,29.89,ESE,114,3.0,7.0,45,0.00,,,0.00,0.0,meteohub,2013-09-13 06:44:00,
2013-09-12 23:49:00,79.9,57.2,29.89,ESE,107,5.0,9.0,46,0.00,,,0.00,0.0,meteohub,2013-09-13 06:49:00,
2013-09-12 23:54:00,79.5,56.8,29.89,SE,134,3.0,9.0,46,0.00,,,0.00,0.0,meteohub,2013-09-13 06:54:00,
2013-09-12 23:59:00,79.3,57.4,29.89,ESE,118,7.0,9.0,47,0.00,,,0.00,0.0,meteohub,2013-09-13 06:59:00,